KTAD/TAD METAR and TAF weather

Enter ICAO airport designator
Station Type Date Time Source
KTAD METAR 2019/04/18 21:54 UTC NOAA

KTAD 182154Z AUTO 05010G21KT 10SM CLR 14/01 A3016 RMK AO2 PK WND 08031/2057 SLP176 T01440011


Station Type Date Time Source
KTAD Decoded METAR 2019/04/18 21:54 UTC NOAA

Trinidad, Perry Stokes Airport, CO, United States (KTAD) 37-16N 104-26W
Apr 18, 2019 - 05:54 PM EDT / 2019.04.18 2154 UTC
Wind: from the NE (050 degrees) at 12 MPH (10 KT) gusting to 24 MPH (21 KT):0
Visibility: 10 mile(s):0
Sky conditions: clear
Temperature: 57.9 F (14.4 C)
Dew Point: 34.0 F (1.1 C)
Relative Humidity: 40%
Pressure (altimeter): 30.16 in. Hg (1021 hPa)
ob: KTAD 182154Z AUTO 05010G21KT 10SM CLR 14/01 A3016 RMK AO2 PK WND 08031/2057 SLP176 T01440011
cycle: 22

Station Type Date Time Source
KTAD TAF UTC NOAA

Error!

Example: see airport list